sensor_id;sensor_type;location;lat;lon;timestamp;P1;durP1;ratioP1;P2;durP2;ratioP2
23270;SDS011;11804;51.118;17.058;2023-11-19T00:01:45;11.70;;;6.40;;
23270;SDS011;11804;51.118;17.058;2023-11-19T00:04:13;18.33;;;7.80;;
23270;SDS011;11804;51.118;17.058;2023-11-19T00:06:40;9.23;;;5.30;;
23270;SDS011;11804;51.118;17.058;2023-11-19T00:09:08;14.63;;;6.23;;
23270;SDS011;11804;51.118;17.058;2023-11-19T00:11:36;13.67;;;6.47;;
23270;SDS011;11804;51.118;17.058;2023-11-19T00:14:03;14.30;;;6.77;;
23270;SDS011;11804;51.118;17.058;2023-11-19T00:16:33;14.83;;;6.93;;
23270;SDS011;11804;51.118;17.058;2023-11-19T00:19:01;13.50;;;7.13;;
23270;SDS011;11804;51.118;17.058;2023-11-19T00:21:30;18.90;;;7.67;;
23270;SDS011;11804;51.118;17.058;2023-11-19T00:23:59;18.00;;;5.47;;
23270;SDS011;11804;51.118;17.058;2023-11-19T00:26:26;14.57;;;6.80;;
23270;SDS011;11804;51.118;17.058;2023-11-19T00:28:54;14.87;;;5.53;;
23270;SDS011;11804;51.118;17.058;2023-11-19T00:31:22;17.20;;;7.23;;
23270;SDS011;11804;51.118;17.058;2023-11-19T00:33:49;15.07;;;7.57;;
23270;SDS011;11804;51.118;17.058;2023-11-19T00:36:17;16.37;;;7.87;;
23270;SDS011;11804;51.118;17.058;2023-11-19T00:38:44;16.83;;;8.43;;
23270;SDS011;11804;51.118;17.058;2023-11-19T00:41:12;23.67;;;9.07;;
23270;SDS011;11804;51.118;17.058;2023-11-19T00:43:41;11.00;;;5.17;;
23270;SDS011;11804;51.118;17.058;2023-11-19T00:46:09;21.70;;;8.93;;
23270;SDS011;11804;51.118;17.058;2023-11-19T00:48:42;14.53;;;6.67;;
23270;SDS011;11804;51.118;17.058;2023-11-19T00:51:11;17.13;;;7.90;;
23270;SDS011;11804;51.118;17.058;2023-11-19T00:53:40;21.40;;;9.80;;
23270;SDS011;11804;51.118;17.058;2023-11-19T00:56:07;13.43;;;6.20;;
23270;SDS011;11804;51.118;17.058;2023-11-19T00:58:38;15.40;;;7.00;;
23270;SDS011;11804;51.118;17.058;2023-11-19T01:01:05;15.83;;;7.13;;
23270;SDS011;11804;51.118;17.058;2023-11-19T01:03:33;20.00;;;7.80;;
23270;SDS011;11804;51.118;17.058;2023-11-19T01:06:00;14.73;;;6.93;;
23270;SDS011;11804;51.118;17.058;2023-11-19T01:08:28;12.13;;;6.10;;
23270;SDS011;11804;51.118;17.058;2023-11-19T01:10:56;12.20;;;5.83;;
23270;SDS011;11804;51.118;17.058;2023-11-19T01:13:23;18.03;;;7.17;;
23270;SDS011;11804;51.118;17.058;2023-11-19T01:15:51;21.73;;;8.10;;
23270;SDS011;11804;51.118;17.058;2023-11-19T01:18:18;8.77;;;4.83;;
23270;SDS011;11804;51.118;17.058;2023-11-19T01:20:46;14.37;;;6.53;;
23270;SDS011;11804;51.118;17.058;2023-11-19T01:23:13;12.03;;;5.83;;
23270;SDS011;11804;51.118;17.058;2023-11-19T01:25:41;13.37;;;6.03;;
23270;SDS011;11804;51.118;17.058;2023-11-19T01:28:09;15.80;;;7.53;;
23270;SDS011;11804;51.118;17.058;2023-11-19T01:30:36;16.60;;;7.33;;
23270;SDS011;11804;51.118;17.058;2023-11-19T01:33:04;20.17;;;8.57;;
23270;SDS011;11804;51.118;17.058;2023-11-19T01:35:33;12.77;;;5.60;;
23270;SDS011;11804;51.118;17.058;2023-11-19T01:38:01;11.63;;;4.90;;
23270;SDS011;11804;51.118;17.058;2023-11-19T01:40:28;11.93;;;6.57;;
23270;SDS011;11804;51.118;17.058;2023-11-19T01:42:56;15.90;;;7.03;;
23270;SDS011;11804;51.118;17.058;2023-11-19T01:45:30;19.93;;;7.07;;
23270;SDS011;11804;51.118;17.058;2023-11-19T01:47:58;11.93;;;5.67;;
23270;SDS011;11804;51.118;17.058;2023-11-19T01:50:27;8.93;;;4.47;;
23270;SDS011;11804;51.118;17.058;2023-11-19T01:52:56;13.37;;;4.67;;
23270;SDS011;11804;51.118;17.058;2023-11-19T01:55:24;11.10;;;6.83;;
23270;SDS011;11804;51.118;17.058;2023-11-19T01:57:58;19.77;;;5.90;;
23270;SDS011;11804;51.118;17.058;2023-11-19T02:00:27;14.20;;;6.10;;
23270;SDS011;11804;51.118;17.058;2023-11-19T02:02:55;17.27;;;5.20;;
23270;SDS011;11804;51.118;17.058;2023-11-19T02:05:23;14.80;;;6.73;;
23270;SDS011;11804;51.118;17.058;2023-11-19T02:07:51;21.73;;;6.90;;
23270;SDS011;11804;51.118;17.058;2023-11-19T02:10:18;15.83;;;6.37;;
23270;SDS011;11804;51.118;17.058;2023-11-19T02:12:46;12.60;;;5.93;;
23270;SDS011;11804;51.118;17.058;2023-11-19T02:15:14;15.47;;;7.73;;
23270;SDS011;11804;51.118;17.058;2023-11-19T02:17:44;14.53;;;6.43;;
23270;SDS011;11804;51.118;17.058;2023-11-19T02:20:12;22.67;;;7.83;;
23270;SDS011;11804;51.118;17.058;2023-11-19T02:22:41;14.63;;;6.67;;
23270;SDS011;11804;51.118;17.058;2023-11-19T02:25:12;19.90;;;8.03;;
23270;SDS011;11804;51.118;17.058;2023-11-19T02:27:50;14.10;;;6.27;;
23270;SDS011;11804;51.118;17.058;2023-11-19T02:30:21;14.20;;;6.00;;
23270;SDS011;11804;51.118;17.058;2023-11-19T02:32:55;13.67;;;6.30;;
23270;SDS011;11804;51.118;17.058;2023-11-19T02:35:24;10.77;;;5.80;;
23270;SDS011;11804;51.118;17.058;2023-11-19T02:37:52;10.97;;;5.57;;
23270;SDS011;11804;51.118;17.058;2023-11-19T02:40:22;16.00;;;6.77;;
23270;SDS011;11804;51.118;17.058;2023-11-19T02:42:53;12.33;;;6.40;;
23270;SDS011;11804;51.118;17.058;2023-11-19T02:45:26;13.07;;;4.60;;
23270;SDS011;11804;51.118;17.058;2023-11-19T02:47:51;17.63;;;6.33;;
23270;SDS011;11804;51.118;17.058;2023-11-19T02:50:20;13.40;;;5.63;;
23270;SDS011;11804;51.118;17.058;2023-11-19T02:52:54;16.43;;;6.70;;
23270;SDS011;11804;51.118;17.058;2023-11-19T02:55:23;11.60;;;6.10;;
23270;SDS011;11804;51.118;17.058;2023-11-19T02:57:53;12.20;;;5.33;;
23270;SDS011;11804;51.118;17.058;2023-11-19T03:00:22;9.53;;;5.23;;
23270;SDS011;11804;51.118;17.058;2023-11-19T03:02:51;9.50;;;4.90;;
23270;SDS011;11804;51.118;17.058;2023-11-19T03:05:25;19.30;;;7.90;;
23270;SDS011;11804;51.118;17.058;2023-11-19T03:07:55;13.63;;;5.93;;
23270;SDS011;11804;51.118;17.058;2023-11-19T03:10:23;12.90;;;7.03;;
23270;SDS011;11804;51.118;17.058;2023-11-19T03:12:51;17.80;;;7.23;;
23270;SDS011;11804;51.118;17.058;2023-11-19T03:15:20;10.10;;;4.77;;
23270;SDS011;11804;51.118;17.058;2023-11-19T03:17:48;18.00;;;7.30;;
23270;SDS011;11804;51.118;17.058;2023-11-19T03:20:15;16.23;;;6.23;;
23270;SDS011;11804;51.118;17.058;2023-11-19T03:22:43;13.37;;;6.50;;
23270;SDS011;11804;51.118;17.058;2023-11-19T03:25:11;21.47;;;9.07;;
23270;SDS011;11804;51.118;17.058;2023-11-19T03:27:39;9.17;;;4.63;;
23270;SDS011;11804;51.118;17.058;2023-11-19T03:30:10;12.53;;;6.27;;
23270;SDS011;11804;51.118;17.058;2023-11-19T03:32:37;9.67;;;5.03;;
23270;SDS011;11804;51.118;17.058;2023-11-19T03:35:07;23.47;;;8.57;;
23270;SDS011;11804;51.118;17.058;2023-11-19T03:37:35;17.67;;;7.40;;
23270;SDS011;11804;51.118;17.058;2023-11-19T03:40:02;14.70;;;4.80;;
23270;SDS011;11804;51.118;17.058;2023-11-19T03:42:30;9.70;;;5.20;;
23270;SDS011;11804;51.118;17.058;2023-11-19T03:44:58;10.63;;;6.63;;
23270;SDS011;11804;51.118;17.058;2023-11-19T03:47:26;15.20;;;7.13;;
23270;SDS011;11804;51.118;17.058;2023-11-19T03:49:54;12.17;;;5.27;;
23270;SDS011;11804;51.118;17.058;2023-11-19T03:52:21;14.97;;;5.50;;
23270;SDS011;11804;51.118;17.058;2023-11-19T03:54:49;15.60;;;7.07;;
23270;SDS011;11804;51.118;17.058;2023-11-19T03:57:17;10.43;;;4.63;;
23270;SDS011;11804;51.118;17.058;2023-11-19T03:59:44;15.03;;;5.60;;
23270;SDS011;11804;51.118;17.058;2023-11-19T04:02:12;15.37;;;5.90;;
23270;SDS011;11804;51.118;17.058;2023-11-19T04:04:39;11.63;;;5.43;;
23270;SDS011;11804;51.118;17.058;2023-11-19T04:07:07;11.03;;;5.83;;
23270;SDS011;11804;51.118;17.058;2023-11-19T04:09:35;12.90;;;4.37;;
23270;SDS011;11804;51.118;17.058;2023-11-19T04:12:03;10.93;;;5.67;;
23270;SDS011;11804;51.118;17.058;2023-11-19T04:14:32;14.87;;;5.97;;
23270;SDS011;11804;51.118;17.058;2023-11-19T04:17:00;18.17;;;5.83;;
23270;SDS011;11804;51.118;17.058;2023-11-19T04:19:28;9.30;;;5.00;;
23270;SDS011;11804;51.118;17.058;2023-11-19T04:21:57;9.70;;;5.23;;
23270;SDS011;11804;51.118;17.058;2023-11-19T04:24:25;15.77;;;5.20;;
23270;SDS011;11804;51.118;17.058;2023-11-19T04:26:54;7.37;;;4.70;;
23270;SDS011;11804;51.118;17.058;2023-11-19T04:29:21;14.43;;;5.57;;
23270;SDS011;11804;51.118;17.058;2023-11-19T04:31:49;10.67;;;5.40;;
23270;SDS011;11804;51.118;17.058;2023-11-19T04:34:16;16.20;;;7.70;;
23270;SDS011;11804;51.118;17.058;2023-11-19T04:36:44;12.67;;;6.60;;
23270;SDS011;11804;51.118;17.058;2023-11-19T04:39:11;10.37;;;4.77;;
23270;SDS011;11804;51.118;17.058;2023-11-19T04:41:47;10.33;;;5.37;;
23270;SDS011;11804;51.118;17.058;2023-11-19T04:44:16;9.47;;;4.30;;
23270;SDS011;11804;51.118;17.058;2023-11-19T04:46:45;12.60;;;5.63;;
23270;SDS011;11804;51.118;17.058;2023-11-19T04:49:13;11.07;;;5.40;;
23270;SDS011;11804;51.118;17.058;2023-11-19T04:51:43;9.07;;;4.70;;
23270;SDS011;11804;51.118;17.058;2023-11-19T04:54:13;11.10;;;4.13;;
23270;SDS011;11804;51.118;17.058;2023-11-19T04:56:40;13.23;;;5.77;;
23270;SDS011;11804;51.118;17.058;2023-11-19T04:59:09;13.97;;;5.03;;
23270;SDS011;11804;51.118;17.058;2023-11-19T05:01:37;9.33;;;4.80;;
23270;SDS011;11804;51.118;17.058;2023-11-19T05:04:04;12.43;;;4.77;;
23270;SDS011;11804;51.118;17.058;2023-11-19T05:06:34;9.87;;;4.43;;
23270;SDS011;11804;51.118;17.058;2023-11-19T05:09:03;7.13;;;4.30;;
23270;SDS011;11804;51.118;17.058;2023-11-19T05:11:33;9.07;;;5.30;;
23270;SDS011;11804;51.118;17.058;2023-11-19T05:14:02;11.93;;;5.20;;
23270;SDS011;11804;51.118;17.058;2023-11-19T05:16:29;9.90;;;4.40;;
23270;SDS011;11804;51.118;17.058;2023-11-19T05:18:57;13.70;;;4.57;;
23270;SDS011;11804;51.118;17.058;2023-11-19T05:21:25;6.93;;;4.23;;
23270;SDS011;11804;51.118;17.058;2023-11-19T05:23:52;12.00;;;4.27;;
23270;SDS011;11804;51.118;17.058;2023-11-19T05:26:20;6.07;;;3.73;;
23270;SDS011;11804;51.118;17.058;2023-11-19T05:28:49;9.13;;;4.20;;
23270;SDS011;11804;51.118;17.058;2023-11-19T05:31:17;8.40;;;4.30;;
23270;SDS011;11804;51.118;17.058;2023-11-19T05:33:45;13.47;;;5.23;;
23270;SDS011;11804;51.118;17.058;2023-11-19T05:36:13;7.30;;;4.10;;
23270;SDS011;11804;51.118;17.058;2023-11-19T05:38:40;8.70;;;3.67;;
23270;SDS011;11804;51.118;17.058;2023-11-19T05:41:08;7.53;;;3.03;;
23270;SDS011;11804;51.118;17.058;2023-11-19T05:43:35;12.17;;;5.30;;
23270;SDS011;11804;51.118;17.058;2023-11-19T05:46:05;10.20;;;4.73;;
23270;SDS011;11804;51.118;17.058;2023-11-19T05:48:32;11.77;;;5.37;;
23270;SDS011;11804;51.118;17.058;2023-11-19T05:51:00;9.87;;;4.00;;
23270;SDS011;11804;51.118;17.058;2023-11-19T05:53:28;6.47;;;3.63;;
23270;SDS011;11804;51.118;17.058;2023-11-19T05:55:56;7.20;;;3.30;;
23270;SDS011;11804;51.118;17.058;2023-11-19T05:58:24;10.90;;;4.37;;
23270;SDS011;11804;51.118;17.058;2023-11-19T06:00:55;10.47;;;4.57;;
23270;SDS011;11804;51.118;17.058;2023-11-19T06:03:23;8.27;;;4.13;;
23270;SDS011;11804;51.118;17.058;2023-11-19T06:05:50;10.77;;;4.60;;
23270;SDS011;11804;51.118;17.058;2023-11-19T06:08:20;13.50;;;4.17;;
23270;SDS011;11804;51.118;17.058;2023-11-19T06:10:48;8.47;;;3.10;;
23270;SDS011;11804;51.118;17.058;2023-11-19T06:13:17;8.37;;;3.87;;
23270;SDS011;11804;51.118;17.058;2023-11-19T06:15:45;8.00;;;3.23;;
23270;SDS011;11804;51.118;17.058;2023-11-19T06:18:13;8.67;;;3.50;;
23270;SDS011;11804;51.118;17.058;2023-11-19T06:20:40;7.13;;;3.60;;
23270;SDS011;11804;51.118;17.058;2023-11-19T06:23:08;4.33;;;2.53;;
23270;SDS011;11804;51.118;17.058;2023-11-19T06:25:35;9.03;;;4.00;;
23270;SDS011;11804;51.118;17.058;2023-11-19T06:28:04;10.90;;;3.80;;
23270;SDS011;11804;51.118;17.058;2023-11-19T06:30:31;8.50;;;3.27;;
23270;SDS011;11804;51.118;17.058;2023-11-19T06:32:59;7.77;;;3.00;;
23270;SDS011;11804;51.118;17.058;2023-11-19T06:35:27;8.40;;;3.93;;
23270;SDS011;11804;51.118;17.058;2023-11-19T06:37:56;13.13;;;4.67;;
23270;SDS011;11804;51.118;17.058;2023-11-19T06:40:25;10.70;;;4.13;;
23270;SDS011;11804;51.118;17.058;2023-11-19T06:42:52;7.27;;;3.97;;
23270;SDS011;11804;51.118;17.058;2023-11-19T06:45:20;9.00;;;4.07;;
23270;SDS011;11804;51.118;17.058;2023-11-19T06:47:47;8.23;;;3.63;;
23270;SDS011;11804;51.118;17.058;2023-11-19T06:50:15;7.53;;;3.43;;
23270;SDS011;11804;51.118;17.058;2023-11-19T06:52:45;10.60;;;4.93;;
23270;SDS011;11804;51.118;17.058;2023-11-19T06:55:13;11.27;;;3.87;;
23270;SDS011;11804;51.118;17.058;2023-11-19T06:57:41;5.43;;;2.70;;
23270;SDS011;11804;51.118;17.058;2023-11-19T07:00:09;8.63;;;4.10;;
23270;SDS011;11804;51.118;17.058;2023-11-19T07:02:38;7.47;;;3.30;;
23270;SDS011;11804;51.118;17.058;2023-11-19T07:05:05;6.30;;;2.60;;
23270;SDS011;11804;51.118;17.058;2023-11-19T07:07:34;6.93;;;2.97;;
23270;SDS011;11804;51.118;17.058;2023-11-19T07:10:01;7.57;;;3.93;;
23270;SDS011;11804;51.118;17.058;2023-11-19T07:12:30;10.87;;;3.77;;
23270;SDS011;11804;51.118;17.058;2023-11-19T07:14:58;8.57;;;3.23;;
23270;SDS011;11804;51.118;17.058;2023-11-19T07:17:26;4.60;;;3.17;;
23270;SDS011;11804;51.118;17.058;2023-11-19T07:19:53;7.60;;;3.10;;
23270;SDS011;11804;51.118;17.058;2023-11-19T07:22:21;3.70;;;1.97;;
23270;SDS011;11804;51.118;17.058;2023-11-19T07:24:48;6.83;;;3.00;;
23270;SDS011;11804;51.118;17.058;2023-11-19T07:27:16;4.23;;;2.63;;
23270;SDS011;11804;51.118;17.058;2023-11-19T07:29:47;7.23;;;3.10;;
23270;SDS011;11804;51.118;17.058;2023-11-19T07:32:14;7.60;;;2.73;;
23270;SDS011;11804;51.118;17.058;2023-11-19T07:34:44;4.73;;;2.27;;
23270;SDS011;11804;51.118;17.058;2023-11-19T07:37:11;6.57;;;3.03;;
23270;SDS011;11804;51.118;17.058;2023-11-19T07:39:43;6.80;;;3.00;;
23270;SDS011;11804;51.118;17.058;2023-11-19T07:42:10;8.23;;;3.60;;
23270;SDS011;11804;51.118;17.058;2023-11-19T07:44:38;11.73;;;3.97;;
23270;SDS011;11804;51.118;17.058;2023-11-19T07:47:05;5.00;;;2.67;;
23270;SDS011;11804;51.118;17.058;2023-11-19T07:49:33;4.37;;;2.47;;
23270;SDS011;11804;51.118;17.058;2023-11-19T07:52:00;9.87;;;4.27;;
23270;SDS011;11804;51.118;17.058;2023-11-19T07:54:29;6.77;;;3.30;;
23270;SDS011;11804;51.118;17.058;2023-11-19T07:56:56;7.73;;;3.70;;
23270;SDS011;11804;51.118;17.058;2023-11-19T07:59:24;9.07;;;4.27;;
23270;SDS011;11804;51.118;17.058;2023-11-19T08:01:51;8.13;;;3.13;;
23270;SDS011;11804;51.118;17.058;2023-11-19T08:04:19;6.67;;;3.60;;
23270;SDS011;11804;51.118;17.058;2023-11-19T08:06:46;5.53;;;2.77;;
23270;SDS011;11804;51.118;17.058;2023-11-19T08:09:14;9.60;;;3.57;;
23270;SDS011;11804;51.118;17.058;2023-11-19T08:11:41;5.33;;;2.60;;
23270;SDS011;11804;51.118;17.058;2023-11-19T08:14:09;3.83;;;2.87;;
23270;SDS011;11804;51.118;17.058;2023-11-19T08:16:38;5.93;;;3.50;;
23270;SDS011;11804;51.118;17.058;2023-11-19T08:19:07;9.70;;;3.10;;
23270;SDS011;11804;51.118;17.058;2023-11-19T08:21:34;5.73;;;2.87;;
23270;SDS011;11804;51.118;17.058;2023-11-19T08:24:02;7.47;;;3.40;;
23270;SDS011;11804;51.118;17.058;2023-11-19T08:26:30;7.70;;;3.57;;
23270;SDS011;11804;51.118;17.058;2023-11-19T08:28:57;5.00;;;2.43;;
23270;SDS011;11804;51.118;17.058;2023-11-19T08:31:25;7.17;;;3.63;;
23270;SDS011;11804;51.118;17.058;2023-11-19T08:33:53;4.87;;;2.83;;
23270;SDS011;11804;51.118;17.058;2023-11-19T08:36:20;9.97;;;3.80;;
23270;SDS011;11804;51.118;17.058;2023-11-19T08:38:49;8.63;;;4.10;;
23270;SDS011;11804;51.118;17.058;2023-11-19T08:41:17;7.13;;;3.30;;
23270;SDS011;11804;51.118;17.058;2023-11-19T08:43:45;11.50;;;3.03;;
23270;SDS011;11804;51.118;17.058;2023-11-19T08:46:13;4.33;;;3.10;;
23270;SDS011;11804;51.118;17.058;2023-11-19T08:48:40;5.40;;;3.17;;
23270;SDS011;11804;51.118;17.058;2023-11-19T08:51:08;4.33;;;2.47;;
23270;SDS011;11804;51.118;17.058;2023-11-19T08:53:36;8.67;;;3.10;;
23270;SDS011;11804;51.118;17.058;2023-11-19T08:56:03;9.77;;;3.33;;
23270;SDS011;11804;51.118;17.058;2023-11-19T08:58:31;3.57;;;2.13;;
23270;SDS011;11804;51.118;17.058;2023-11-19T09:00:59;5.63;;;2.63;;
23270;SDS011;11804;51.118;17.058;2023-11-19T09:03:26;8.07;;;3.47;;
23270;SDS011;11804;51.118;17.058;2023-11-19T09:05:55;4.87;;;2.23;;
23270;SDS011;11804;51.118;17.058;2023-11-19T09:08:23;6.53;;;3.37;;
23270;SDS011;11804;51.118;17.058;2023-11-19T09:10:50;6.07;;;3.03;;
23270;SDS011;11804;51.118;17.058;2023-11-19T09:13:18;4.83;;;2.60;;
23270;SDS011;11804;51.118;17.058;2023-11-19T09:15:46;6.93;;;3.47;;
23270;SDS011;11804;51.118;17.058;2023-11-19T09:18:13;7.00;;;2.93;;
23270;SDS011;11804;51.118;17.058;2023-11-19T09:20:41;9.90;;;3.23;;
23270;SDS011;11804;51.118;17.058;2023-11-19T09:23:08;6.73;;;3.40;;
23270;SDS011;11804;51.118;17.058;2023-11-19T09:25:36;8.67;;;4.73;;
23270;SDS011;11804;51.118;17.058;2023-11-19T09:28:04;8.80;;;4.10;;
23270;SDS011;11804;51.118;17.058;2023-11-19T09:30:31;7.90;;;3.70;;
23270;SDS011;11804;51.118;17.058;2023-11-19T09:33:05;11.67;;;4.03;;
23270;SDS011;11804;51.118;17.058;2023-11-19T09:35:32;4.47;;;2.47;;
23270;SDS011;11804;51.118;17.058;2023-11-19T09:37:59;7.57;;;4.40;;
23270;SDS011;11804;51.118;17.058;2023-11-19T09:40:27;8.90;;;3.30;;
23270;SDS011;11804;51.118;17.058;2023-11-19T09:42:58;10.67;;;3.97;;
23270;SDS011;11804;51.118;17.058;2023-11-19T09:45:27;9.37;;;3.93;;
23270;SDS011;11804;51.118;17.058;2023-11-19T09:47:55;8.27;;;3.27;;
23270;SDS011;11804;51.118;17.058;2023-11-19T09:50:26;12.37;;;4.03;;
23270;SDS011;11804;51.118;17.058;2023-11-19T09:52:54;9.33;;;4.37;;
23270;SDS011;11804;51.118;17.058;2023-11-19T09:55:21;11.37;;;4.73;;
23270;SDS011;11804;51.118;17.058;2023-11-19T09:57:49;10.33;;;4.00;;
23270;SDS011;11804;51.118;17.058;2023-11-19T10:00:19;5.40;;;2.50;;
23270;SDS011;11804;51.118;17.058;2023-11-19T10:02:48;10.07;;;4.27;;
23270;SDS011;11804;51.118;17.058;2023-11-19T10:05:16;10.63;;;3.77;;
23270;SDS011;11804;51.118;17.058;2023-11-19T10:07:49;8.47;;;3.60;;
23270;SDS011;11804;51.118;17.058;2023-11-19T10:10:17;8.30;;;3.37;;
23270;SDS011;11804;51.118;17.058;2023-11-19T10:12:45;7.23;;;3.33;;
23270;SDS011;11804;51.118;17.058;2023-11-19T10:15:23;9.93;;;3.80;;
23270;SDS011;11804;51.118;17.058;2023-11-19T10:17:57;6.30;;;3.77;;
23270;SDS011;11804;51.118;17.058;2023-11-19T10:20:23;6.63;;;3.07;;
23270;SDS011;11804;51.118;17.058;2023-11-19T10:22:53;5.70;;;3.30;;
23270;SDS011;11804;51.118;17.058;2023-11-19T10:25:22;6.77;;;3.53;;
23270;SDS011;11804;51.118;17.058;2023-11-19T10:27:51;7.33;;;3.70;;
23270;SDS011;11804;51.118;17.058;2023-11-19T10:30:23;7.37;;;3.37;;
23270;SDS011;11804;51.118;17.058;2023-11-19T10:33:07;10.07;;;3.37;;
23270;SDS011;11804;51.118;17.058;2023-11-19T10:35:51;7.53;;;3.47;;
23270;SDS011;11804;51.118;17.058;2023-11-19T10:38:25;5.83;;;2.50;;
23270;SDS011;11804;51.118;17.058;2023-11-19T10:40:53;5.63;;;3.33;;
23270;SDS011;11804;51.118;17.058;2023-11-19T10:43:21;6.23;;;3.43;;
23270;SDS011;11804;51.118;17.058;2023-11-19T10:45:52;8.23;;;2.77;;
23270;SDS011;11804;51.118;17.058;2023-11-19T10:48:23;6.77;;;3.20;;
23270;SDS011;11804;51.118;17.058;2023-11-19T10:50:54;11.57;;;4.47;;
23270;SDS011;11804;51.118;17.058;2023-11-19T10:53:26;8.57;;;4.10;;
23270;SDS011;11804;51.118;17.058;2023-11-19T10:55:57;6.70;;;3.53;;
23270;SDS011;11804;51.118;17.058;2023-11-19T10:58:50;7.43;;;3.83;;
23270;SDS011;11804;51.118;17.058;2023-11-19T11:01:06;6.83;;;3.60;;
23270;SDS011;11804;51.118;17.058;2023-11-19T11:03:41;8.17;;;3.27;;
23270;SDS011;11804;51.118;17.058;2023-11-19T11:06:12;5.93;;;2.70;;
23270;SDS011;11804;51.118;17.058;2023-11-19T11:08:40;7.17;;;2.73;;
23270;SDS011;11804;51.118;17.058;2023-11-19T11:11:09;7.50;;;3.33;;
23270;SDS011;11804;51.118;17.058;2023-11-19T11:13:40;4.23;;;2.53;;
23270;SDS011;11804;51.118;17.058;2023-11-19T11:16:11;5.27;;;2.80;;
23270;SDS011;11804;51.118;17.058;2023-11-19T11:18:40;9.07;;;3.97;;
23270;SDS011;11804;51.118;17.058;2023-11-19T11:21:13;5.77;;;3.40;;
23270;SDS011;11804;51.118;17.058;2023-11-19T11:23:52;5.20;;;2.40;;
23270;SDS011;11804;51.118;17.058;2023-11-19T11:26:45;4.87;;;2.63;;
23270;SDS011;11804;51.118;17.058;2023-11-19T11:37:47;5.30;;;2.07;;
23270;SDS011;11804;51.118;17.058;2023-11-19T11:40:14;4.03;;;2.03;;
23270;SDS011;11804;51.118;17.058;2023-11-19T11:42:44;4.50;;;2.30;;
23270;SDS011;11804;51.118;17.058;2023-11-19T11:45:13;3.77;;;2.47;;
23270;SDS011;11804;51.118;17.058;2023-11-19T11:50:20;4.67;;;2.47;;
23270;SDS011;11804;51.118;17.058;2023-11-19T11:55:34;4.73;;;2.40;;
23270;SDS011;11804;51.118;17.058;2023-11-19T11:58:08;4.90;;;1.90;;
23270;SDS011;11804;51.118;17.058;2023-11-19T12:00:39;4.33;;;1.67;;
23270;SDS011;11804;51.118;17.058;2023-11-19T12:03:08;5.20;;;2.27;;
23270;SDS011;11804;51.118;17.058;2023-11-19T12:05:45;5.30;;;1.90;;
23270;SDS011;11804;51.118;17.058;2023-11-19T12:08:10;2.80;;;1.63;;
23270;SDS011;11804;51.118;17.058;2023-11-19T12:10:47;4.33;;;1.90;;
23270;SDS011;11804;51.118;17.058;2023-11-19T12:13:17;2.60;;;1.67;;
23270;SDS011;11804;51.118;17.058;2023-11-19T12:18:27;4.43;;;2.07;;
23270;SDS011;11804;51.118;17.058;2023-11-19T12:20:58;6.20;;;3.03;;
23270;SDS011;11804;51.118;17.058;2023-11-19T12:23:28;11.40;;;4.40;;
23270;SDS011;11804;51.118;17.058;2023-11-19T12:25:57;10.97;;;5.07;;
23270;SDS011;11804;51.118;17.058;2023-11-19T12:28:25;13.47;;;6.33;;
23270;SDS011;11804;51.118;17.058;2023-11-19T12:30:53;11.23;;;5.40;;
23270;SDS011;11804;51.118;17.058;2023-11-19T12:33:22;6.87;;;3.03;;
23270;SDS011;11804;51.118;17.058;2023-11-19T12:35:49;8.83;;;3.73;;
23270;SDS011;11804;51.118;17.058;2023-11-19T12:38:21;8.10;;;3.47;;
23270;SDS011;11804;51.118;17.058;2023-11-19T12:41:08;7.00;;;3.00;;
23270;SDS011;11804;51.118;17.058;2023-11-19T12:43:41;9.27;;;3.43;;
23270;SDS011;11804;51.118;17.058;2023-11-19T12:46:20;8.73;;;4.63;;
23270;SDS011;11804;51.118;17.058;2023-11-19T12:48:49;10.43;;;5.43;;
23270;SDS011;11804;51.118;17.058;2023-11-19T12:51:19;11.93;;;6.37;;
23270;SDS011;11804;51.118;17.058;2023-11-19T12:53:51;10.97;;;5.07;;
23270;SDS011;11804;51.118;17.058;2023-11-19T12:56:22;5.60;;;3.13;;
23270;SDS011;11804;51.118;17.058;2023-11-19T12:58:51;7.13;;;3.77;;
23270;SDS011;11804;51.118;17.058;2023-11-19T13:01:18;7.03;;;3.97;;
23270;SDS011;11804;51.118;17.058;2023-11-19T13:03:47;8.00;;;4.23;;
23270;SDS011;11804;51.118;17.058;2023-11-19T13:06:17;4.20;;;2.57;;
23270;SDS011;11804;51.118;17.058;2023-11-19T13:08:47;3.83;;;2.47;;
23270;SDS011;11804;51.118;17.058;2023-11-19T13:11:31;4.70;;;2.47;;
23270;SDS011;11804;51.118;17.058;2023-11-19T13:14:01;6.20;;;3.50;;
23270;SDS011;11804;51.118;17.058;2023-11-19T13:16:35;7.97;;;3.60;;
23270;SDS011;11804;51.118;17.058;2023-11-19T13:19:04;5.60;;;3.10;;
23270;SDS011;11804;51.118;17.058;2023-11-19T13:21:34;6.67;;;2.90;;
23270;SDS011;11804;51.118;17.058;2023-11-19T13:24:02;6.17;;;3.43;;
23270;SDS011;11804;51.118;17.058;2023-11-19T13:26:31;5.03;;;2.60;;
23270;SDS011;11804;51.118;17.058;2023-11-19T13:28:59;7.93;;;3.10;;
23270;SDS011;11804;51.118;17.058;2023-11-19T13:31:26;6.53;;;3.10;;
23270;SDS011;11804;51.118;17.058;2023-11-19T13:33:54;5.23;;;3.23;;
23270;SDS011;11804;51.118;17.058;2023-11-19T13:36:24;7.27;;;3.57;;
23270;SDS011;11804;51.118;17.058;2023-11-19T13:38:52;9.53;;;4.23;;
23270;SDS011;11804;51.118;17.058;2023-11-19T13:41:21;10.20;;;4.30;;
23270;SDS011;11804;51.118;17.058;2023-11-19T13:43:49;8.07;;;3.40;;
23270;SDS011;11804;51.118;17.058;2023-11-19T13:46:17;7.60;;;4.37;;
23270;SDS011;11804;51.118;17.058;2023-11-19T13:48:44;7.30;;;4.30;;
23270;SDS011;11804;51.118;17.058;2023-11-19T13:51:14;10.63;;;6.20;;
23270;SDS011;11804;51.118;17.058;2023-11-19T13:53:42;6.97;;;4.53;;
23270;SDS011;11804;51.118;17.058;2023-11-19T13:56:10;12.27;;;5.30;;
23270;SDS011;11804;51.118;17.058;2023-11-19T13:58:37;11.07;;;6.27;;
23270;SDS011;11804;51.118;17.058;2023-11-19T14:01:06;11.73;;;6.10;;
23270;SDS011;11804;51.118;17.058;2023-11-19T14:03:33;10.23;;;5.40;;
23270;SDS011;11804;51.118;17.058;2023-11-19T14:06:01;7.90;;;4.37;;
23270;SDS011;11804;51.118;17.058;2023-11-19T14:08:29;8.10;;;4.10;;
23270;SDS011;11804;51.118;17.058;2023-11-19T14:10:57;11.87;;;5.43;;
23270;SDS011;11804;51.118;17.058;2023-11-19T14:13:24;7.47;;;4.67;;
23270;SDS011;11804;51.118;17.058;2023-11-19T14:15:52;10.73;;;4.87;;
23270;SDS011;11804;51.118;17.058;2023-11-19T14:18:19;8.23;;;4.27;;
23270;SDS011;11804;51.118;17.058;2023-11-19T14:20:47;7.90;;;3.50;;
23270;SDS011;11804;51.118;17.058;2023-11-19T14:23:14;10.23;;;3.73;;
23270;SDS011;11804;51.118;17.058;2023-11-19T14:25:42;7.93;;;3.13;;
23270;SDS011;11804;51.118;17.058;2023-11-19T14:28:10;8.27;;;4.07;;
23270;SDS011;11804;51.118;17.058;2023-11-19T14:30:38;7.17;;;3.60;;
23270;SDS011;11804;51.118;17.058;2023-11-19T14:33:07;5.83;;;3.50;;
23270;SDS011;11804;51.118;17.058;2023-11-19T14:35:35;5.60;;;3.23;;
23270;SDS011;11804;51.118;17.058;2023-11-19T14:38:02;6.93;;;3.20;;
23270;SDS011;11804;51.118;17.058;2023-11-19T14:40:31;5.80;;;2.70;;
23270;SDS011;11804;51.118;17.058;2023-11-19T14:43:01;5.57;;;2.33;;
23270;SDS011;11804;51.118;17.058;2023-11-19T14:45:30;4.27;;;2.17;;
23270;SDS011;11804;51.118;17.058;2023-11-19T14:47:57;3.53;;;2.17;;
23270;SDS011;11804;51.118;17.058;2023-11-19T14:50:25;3.70;;;1.83;;
23270;SDS011;11804;51.118;17.058;2023-11-19T14:52:53;4.90;;;2.20;;
23270;SDS011;11804;51.118;17.058;2023-11-19T14:55:21;8.53;;;3.33;;